sensor_id;sensor_type;location;lat;lon;timestamp;temperature;humidity
9118;DHT22;4594;50.994;7.126;2022-12-18T00:01:24;-1.30;41.30
9118;DHT22;4594;50.994;7.126;2022-12-18T00:03:57;-1.30;41.20
9118;DHT22;4594;50.994;7.126;2022-12-18T00:06:25;-1.30;41.40
9118;DHT22;4594;50.994;7.126;2022-12-18T00:08:54;-1.30;41.50
9118;DHT22;4594;50.994;7.126;2022-12-18T00:11:23;-1.30;41.50
9118;DHT22;4594;50.994;7.126;2022-12-18T00:13:51;-1.20;41.50
9118;DHT22;4594;50.994;7.126;2022-12-18T00:16:21;-1.20;41.60
9118;DHT22;4594;50.994;7.126;2022-12-18T00:18:49;-1.20;41.70
9118;DHT22;4594;50.994;7.126;2022-12-18T00:21:16;-1.20;41.70
9118;DHT22;4594;50.994;7.126;2022-12-18T00:23:44;-1.20;41.60
9118;DHT22;4594;50.994;7.126;2022-12-18T00:26:14;-1.20;41.50
9118;DHT22;4594;50.994;7.126;2022-12-18T00:28:42;-1.20;41.40
9118;DHT22;4594;50.994;7.126;2022-12-18T00:31:11;-1.20;41.30
9118;DHT22;4594;50.994;7.126;2022-12-18T00:33:39;-1.20;41.40
9118;DHT22;4594;50.994;7.126;2022-12-18T00:36:07;-1.20;41.50
9118;DHT22;4594;50.994;7.126;2022-12-18T00:38:35;-1.20;41.50
9118;DHT22;4594;50.994;7.126;2022-12-18T00:41:02;-1.20;41.40
9118;DHT22;4594;50.994;7.126;2022-12-18T00:43:28;-1.20;41.40
9118;DHT22;4594;50.994;7.126;2022-12-18T00:45:54;-1.20;41.20
9118;DHT22;4594;50.994;7.126;2022-12-18T00:48:20;-1.20;41.20
9118;DHT22;4594;50.994;7.126;2022-12-18T00:50:47;-1.20;41.10
9118;DHT22;4594;50.994;7.126;2022-12-18T00:53:14;-1.20;41.20
9118;DHT22;4594;50.994;7.126;2022-12-18T00:55:41;-1.20;41.30
9118;DHT22;4594;50.994;7.126;2022-12-18T00:58:08;-1.20;41.30
9118;DHT22;4594;50.994;7.126;2022-12-18T01:00:35;-1.20;41.30
9118;DHT22;4594;50.994;7.126;2022-12-18T01:03:01;-1.20;41.30
9118;DHT22;4594;50.994;7.126;2022-12-18T01:05:28;-1.20;41.30
9118;DHT22;4594;50.994;7.126;2022-12-18T01:07:54;-1.20;41.40
9118;DHT22;4594;50.994;7.126;2022-12-18T01:10:20;-1.20;41.50
9118;DHT22;4594;50.994;7.126;2022-12-18T01:12:46;-1.20;42.00
9118;DHT22;4594;50.994;7.126;2022-12-18T01:15:13;-1.20;41.70
9118;DHT22;4594;50.994;7.126;2022-12-18T01:17:40;-1.20;41.60
9118;DHT22;4594;50.994;7.126;2022-12-18T01:20:07;-1.20;41.60
9118;DHT22;4594;50.994;7.126;2022-12-18T01:22:34;-1.20;41.80
9118;DHT22;4594;50.994;7.126;2022-12-18T01:25:00;-1.20;41.80
9118;DHT22;4594;50.994;7.126;2022-12-18T01:27:27;-1.10;42.00
9118;DHT22;4594;50.994;7.126;2022-12-18T01:29:53;-1.10;42.00
9118;DHT22;4594;50.994;7.126;2022-12-18T01:32:19;-1.10;41.80
9118;DHT22;4594;50.994;7.126;2022-12-18T01:34:45;-1.10;41.90
9118;DHT22;4594;50.994;7.126;2022-12-18T01:37:10;-1.10;41.60
9118;DHT22;4594;50.994;7.126;2022-12-18T01:39:36;-1.10;41.70
9118;DHT22;4594;50.994;7.126;2022-12-18T01:42:11;-1.10;41.80
9118;DHT22;4594;50.994;7.126;2022-12-18T01:47:46;-1.00;41.40
9118;DHT22;4594;50.994;7.126;2022-12-18T01:50:21;-1.00;41.70
9118;DHT22;4594;50.994;7.126;2022-12-18T01:55:48;-1.00;41.60
9118;DHT22;4594;50.994;7.126;2022-12-18T01:58:18;-1.00;41.50
9118;DHT22;4594;50.994;7.126;2022-12-18T02:00:48;-1.00;41.70
9118;DHT22;4594;50.994;7.126;2022-12-18T02:03:13;-0.90;41.70
9118;DHT22;4594;50.994;7.126;2022-12-18T02:17:05;-1.00;41.10
9118;DHT22;4594;50.994;7.126;2022-12-18T02:20:02;-1.00;41.10
9118;DHT22;4594;50.994;7.126;2022-12-18T02:28:01;-1.10;41.00
9118;DHT22;4594;50.994;7.126;2022-12-18T02:30:31;-1.10;41.00
9118;DHT22;4594;50.994;7.126;2022-12-18T02:33:02;-1.10;40.90
9118;DHT22;4594;50.994;7.126;2022-12-18T02:35:31;-1.10;40.90
9118;DHT22;4594;50.994;7.126;2022-12-18T02:38:00;-1.10;41.00
9118;DHT22;4594;50.994;7.126;2022-12-18T02:40:28;-1.20;41.10
9118;DHT22;4594;50.994;7.126;2022-12-18T02:42:55;-1.20;41.20
9118;DHT22;4594;50.994;7.126;2022-12-18T02:45:28;-1.20;41.40
9118;DHT22;4594;50.994;7.126;2022-12-18T02:47:53;-1.20;41.10
9118;DHT22;4594;50.994;7.126;2022-12-18T02:50:30;-1.20;41.10
9118;DHT22;4594;50.994;7.126;2022-12-18T02:58:47;-1.20;40.80
9118;DHT22;4594;50.994;7.126;2022-12-18T03:01:56;-1.20;40.60
9118;DHT22;4594;50.994;7.126;2022-12-18T03:06:57;-1.20;40.90
9118;DHT22;4594;50.994;7.126;2022-12-18T03:09:32;-1.20;41.00
9118;DHT22;4594;50.994;7.126;2022-12-18T03:12:07;-1.20;40.70
9118;DHT22;4594;50.994;7.126;2022-12-18T03:15:09;-1.20;40.80
9118;DHT22;4594;50.994;7.126;2022-12-18T03:17:57;-1.20;40.60
9118;DHT22;4594;50.994;7.126;2022-12-18T03:20:29;-1.20;40.70
9118;DHT22;4594;50.994;7.126;2022-12-18T03:23:07;-1.20;41.00
9118;DHT22;4594;50.994;7.126;2022-12-18T03:25:37;-1.20;41.10
9118;DHT22;4594;50.994;7.126;2022-12-18T03:28:09;-1.20;41.30
9118;DHT22;4594;50.994;7.126;2022-12-18T03:30:42;-1.20;41.40
9118;DHT22;4594;50.994;7.126;2022-12-18T03:35:43;-1.10;41.50
9118;DHT22;4594;50.994;7.126;2022-12-18T03:38:10;-1.10;41.70
9118;DHT22;4594;50.994;7.126;2022-12-18T03:41:19;-1.10;41.60
9118;DHT22;4594;50.994;7.126;2022-12-18T03:43:57;-1.00;41.40
9118;DHT22;4594;50.994;7.126;2022-12-18T03:47:07;-1.00;41.30
9118;DHT22;4594;50.994;7.126;2022-12-18T03:50:07;-0.90;41.60
9118;DHT22;4594;50.994;7.126;2022-12-18T03:52:49;-0.90;41.70
9118;DHT22;4594;50.994;7.126;2022-12-18T03:55:24;-0.90;41.70
9118;DHT22;4594;50.994;7.126;2022-12-18T03:57:53;-0.90;41.80
9118;DHT22;4594;50.994;7.126;2022-12-18T04:00:20;-0.80;41.90
9118;DHT22;4594;50.994;7.126;2022-12-18T04:02:50;-0.80;41.90
9118;DHT22;4594;50.994;7.126;2022-12-18T04:05:19;-0.80;41.70
9118;DHT22;4594;50.994;7.126;2022-12-18T04:07:47;-0.80;42.00
9118;DHT22;4594;50.994;7.126;2022-12-18T04:10:16;-0.80;42.20
9118;DHT22;4594;50.994;7.126;2022-12-18T04:12:42;-0.80;41.90
9118;DHT22;4594;50.994;7.126;2022-12-18T04:15:08;-0.80;41.80
9118;DHT22;4594;50.994;7.126;2022-12-18T04:17:35;-0.70;41.70
9118;DHT22;4594;50.994;7.126;2022-12-18T04:20:01;-0.70;41.70
9118;DHT22;4594;50.994;7.126;2022-12-18T04:22:26;-0.70;41.90
9118;DHT22;4594;50.994;7.126;2022-12-18T04:24:52;-0.70;41.70
9118;DHT22;4594;50.994;7.126;2022-12-18T04:27:18;-0.70;41.60
9118;DHT22;4594;50.994;7.126;2022-12-18T04:29:44;-0.70;41.60
9118;DHT22;4594;50.994;7.126;2022-12-18T04:32:09;-0.70;41.50
9118;DHT22;4594;50.994;7.126;2022-12-18T04:34:35;-0.70;41.50
9118;DHT22;4594;50.994;7.126;2022-12-18T04:37:01;-0.70;41.40
9118;DHT22;4594;50.994;7.126;2022-12-18T04:39:27;-0.70;41.50
9118;DHT22;4594;50.994;7.126;2022-12-18T04:41:52;-0.80;41.30
9118;DHT22;4594;50.994;7.126;2022-12-18T04:44:18;-0.70;41.40
9118;DHT22;4594;50.994;7.126;2022-12-18T04:46:44;-0.70;41.30
9118;DHT22;4594;50.994;7.126;2022-12-18T04:49:10;-0.80;41.20
9118;DHT22;4594;50.994;7.126;2022-12-18T04:51:36;-0.80;41.10
9118;DHT22;4594;50.994;7.126;2022-12-18T04:54:02;-0.80;41.00
9118;DHT22;4594;50.994;7.126;2022-12-18T04:56:30;-0.80;41.00
9118;DHT22;4594;50.994;7.126;2022-12-18T04:58:56;-0.80;41.20
9118;DHT22;4594;50.994;7.126;2022-12-18T05:01:22;-0.80;41.10
9118;DHT22;4594;50.994;7.126;2022-12-18T05:03:47;-0.80;41.10
9118;DHT22;4594;50.994;7.126;2022-12-18T05:06:14;-0.90;41.20
9118;DHT22;4594;50.994;7.126;2022-12-18T05:08:40;-0.80;41.20
9118;DHT22;4594;50.994;7.126;2022-12-18T05:11:11;-0.80;41.20
9118;DHT22;4594;50.994;7.126;2022-12-18T05:13:39;-0.80;41.00
9118;DHT22;4594;50.994;7.126;2022-12-18T05:16:05;-0.90;41.00
9118;DHT22;4594;50.994;7.126;2022-12-18T05:18:31;-0.80;41.00
9118;DHT22;4594;50.994;7.126;2022-12-18T05:20:57;-0.90;40.90
9118;DHT22;4594;50.994;7.126;2022-12-18T05:23:24;-0.90;41.00
9118;DHT22;4594;50.994;7.126;2022-12-18T05:25:58;-0.90;41.00
9118;DHT22;4594;50.994;7.126;2022-12-18T05:28:27;-0.80;40.70
9118;DHT22;4594;50.994;7.126;2022-12-18T05:30:56;-0.90;41.00
9118;DHT22;4594;50.994;7.126;2022-12-18T05:33:25;-0.90;41.00
9118;DHT22;4594;50.994;7.126;2022-12-18T05:35:56;-0.90;41.00
9118;DHT22;4594;50.994;7.126;2022-12-18T05:38:29;-0.90;41.00
9118;DHT22;4594;50.994;7.126;2022-12-18T05:40:57;-0.90;40.80
9118;DHT22;4594;50.994;7.126;2022-12-18T05:43:24;-0.90;40.80
9118;DHT22;4594;50.994;7.126;2022-12-18T05:45:51;-0.90;40.80
9118;DHT22;4594;50.994;7.126;2022-12-18T05:48:18;-0.90;40.70
9118;DHT22;4594;50.994;7.126;2022-12-18T05:50:46;-0.90;40.80
9118;DHT22;4594;50.994;7.126;2022-12-18T05:53:15;-0.90;40.70
9118;DHT22;4594;50.994;7.126;2022-12-18T05:55:43;-1.00;40.60
9118;DHT22;4594;50.994;7.126;2022-12-18T05:58:10;-1.00;40.70
9118;DHT22;4594;50.994;7.126;2022-12-18T06:00:41;-1.00;40.60
9118;DHT22;4594;50.994;7.126;2022-12-18T06:03:10;-1.00;40.50
9118;DHT22;4594;50.994;7.126;2022-12-18T06:05:41;-1.00;40.50
9118;DHT22;4594;50.994;7.126;2022-12-18T06:08:09;-1.00;40.40
9118;DHT22;4594;50.994;7.126;2022-12-18T06:10:35;-1.10;40.30
9118;DHT22;4594;50.994;7.126;2022-12-18T06:13:00;-1.10;40.30
9118;DHT22;4594;50.994;7.126;2022-12-18T06:15:26;-1.10;40.30
9118;DHT22;4594;50.994;7.126;2022-12-18T06:17:52;-1.10;40.30
9118;DHT22;4594;50.994;7.126;2022-12-18T06:20:18;-1.10;40.30
9118;DHT22;4594;50.994;7.126;2022-12-18T06:22:44;-1.20;40.30
9118;DHT22;4594;50.994;7.126;2022-12-18T06:25:10;-1.20;40.40
9118;DHT22;4594;50.994;7.126;2022-12-18T06:27:36;-1.20;40.50
9118;DHT22;4594;50.994;7.126;2022-12-18T06:30:02;-1.20;40.50
9118;DHT22;4594;50.994;7.126;2022-12-18T06:32:28;-1.20;40.50
9118;DHT22;4594;50.994;7.126;2022-12-18T06:34:54;-1.20;40.80
9118;DHT22;4594;50.994;7.126;2022-12-18T06:37:21;-1.20;40.60
9118;DHT22;4594;50.994;7.126;2022-12-18T06:39:47;-1.20;40.60
9118;DHT22;4594;50.994;7.126;2022-12-18T06:42:13;-1.20;40.60
9118;DHT22;4594;50.994;7.126;2022-12-18T06:44:38;-1.20;40.60
9118;DHT22;4594;50.994;7.126;2022-12-18T06:47:04;-1.20;40.60
9118;DHT22;4594;50.994;7.126;2022-12-18T06:49:29;-1.20;40.60
9118;DHT22;4594;50.994;7.126;2022-12-18T06:51:55;-1.20;40.70
9118;DHT22;4594;50.994;7.126;2022-12-18T06:54:21;-1.20;40.80
9118;DHT22;4594;50.994;7.126;2022-12-18T06:56:46;-1.10;41.00
9118;DHT22;4594;50.994;7.126;2022-12-18T06:59:13;-1.10;41.00
9118;DHT22;4594;50.994;7.126;2022-12-18T07:01:39;-1.10;40.90
9118;DHT22;4594;50.994;7.126;2022-12-18T07:04:06;-1.10;40.90
9118;DHT22;4594;50.994;7.126;2022-12-18T07:06:31;-1.10;40.80
9118;DHT22;4594;50.994;7.126;2022-12-18T07:08:57;-1.10;40.80
9118;DHT22;4594;50.994;7.126;2022-12-18T07:11:23;-1.10;40.70
9118;DHT22;4594;50.994;7.126;2022-12-18T07:13:49;-1.10;40.70
9118;DHT22;4594;50.994;7.126;2022-12-18T07:16:20;-1.10;40.80
9118;DHT22;4594;50.994;7.126;2022-12-18T07:18:46;-1.10;40.60
9118;DHT22;4594;50.994;7.126;2022-12-18T07:21:14;-1.10;41.00
9118;DHT22;4594;50.994;7.126;2022-12-18T07:23:41;-1.00;41.20
9118;DHT22;4594;50.994;7.126;2022-12-18T07:26:11;-1.00;41.30
9118;DHT22;4594;50.994;7.126;2022-12-18T07:28:39;-1.00;41.10
9118;DHT22;4594;50.994;7.126;2022-12-18T07:31:14;-0.90;41.30
9118;DHT22;4594;50.994;7.126;2022-12-18T07:33:43;-0.90;41.20
9118;DHT22;4594;50.994;7.126;2022-12-18T07:36:11;-0.90;41.20
9118;DHT22;4594;50.994;7.126;2022-12-18T07:38:37;-0.90;41.10
9118;DHT22;4594;50.994;7.126;2022-12-18T07:41:09;-0.80;41.20
9118;DHT22;4594;50.994;7.126;2022-12-18T07:43:38;-0.80;40.90
9118;DHT22;4594;50.994;7.126;2022-12-18T07:46:06;-0.80;41.10
9118;DHT22;4594;50.994;7.126;2022-12-18T07:48:33;-0.70;41.10
9118;DHT22;4594;50.994;7.126;2022-12-18T07:51:00;-0.70;41.10
9118;DHT22;4594;50.994;7.126;2022-12-18T07:53:28;-0.70;41.10
9118;DHT22;4594;50.994;7.126;2022-12-18T07:56:01;-0.70;41.10
9118;DHT22;4594;50.994;7.126;2022-12-18T07:58:29;-0.60;41.20
9118;DHT22;4594;50.994;7.126;2022-12-18T08:01:05;-0.60;41.90
9118;DHT22;4594;50.994;7.126;2022-12-18T08:03:36;-0.40;42.10
9118;DHT22;4594;50.994;7.126;2022-12-18T08:06:04;-0.30;43.30
9118;DHT22;4594;50.994;7.126;2022-12-18T08:08:33;0.00;43.90
9118;DHT22;4594;50.994;7.126;2022-12-18T08:10:59;0.20;44.50
9118;DHT22;4594;50.994;7.126;2022-12-18T08:13:25;0.50;45.20
9118;DHT22;4594;50.994;7.126;2022-12-18T08:16:03;0.90;46.00
9118;DHT22;4594;50.994;7.126;2022-12-18T08:18:32;1.20;45.50
9118;DHT22;4594;50.994;7.126;2022-12-18T08:21:11;1.60;47.00
9118;DHT22;4594;50.994;7.126;2022-12-18T08:23:38;2.00;46.20
9118;DHT22;4594;50.994;7.126;2022-12-18T08:26:05;2.40;47.50
9118;DHT22;4594;50.994;7.126;2022-12-18T08:28:31;2.70;47.30
9118;DHT22;4594;50.994;7.126;2022-12-18T08:30:57;3.00;47.40
9118;DHT22;4594;50.994;7.126;2022-12-18T08:33:23;3.30;47.10
9118;DHT22;4594;50.994;7.126;2022-12-18T08:35:49;3.60;47.20
9118;DHT22;4594;50.994;7.126;2022-12-18T08:38:14;3.90;47.00
9118;DHT22;4594;50.994;7.126;2022-12-18T08:40:40;4.10;46.50
9118;DHT22;4594;50.994;7.126;2022-12-18T08:43:07;4.30;45.50
9118;DHT22;4594;50.994;7.126;2022-12-18T08:45:53;4.50;45.10
9118;DHT22;4594;50.994;7.126;2022-12-18T08:48:19;4.60;44.80
9118;DHT22;4594;50.994;7.126;2022-12-18T08:50:54;4.70;44.50
9118;DHT22;4594;50.994;7.126;2022-12-18T08:53:21;4.70;43.10
9118;DHT22;4594;50.994;7.126;2022-12-18T08:55:46;4.80;44.10
9118;DHT22;4594;50.994;7.126;2022-12-18T08:58:12;4.80;43.70
9118;DHT22;4594;50.994;7.126;2022-12-18T09:00:38;4.70;43.70
9118;DHT22;4594;50.994;7.126;2022-12-18T09:03:03;4.70;43.70
9118;DHT22;4594;50.994;7.126;2022-12-18T09:05:30;4.70;43.50
9118;DHT22;4594;50.994;7.126;2022-12-18T09:07:55;4.70;42.90
9118;DHT22;4594;50.994;7.126;2022-12-18T09:10:21;4.60;42.70
9118;DHT22;4594;50.994;7.126;2022-12-18T09:12:47;4.60;42.70
9118;DHT22;4594;50.994;7.126;2022-12-18T09:15:13;4.60;42.80
9118;DHT22;4594;50.994;7.126;2022-12-18T09:17:38;4.60;42.90
9118;DHT22;4594;50.994;7.126;2022-12-18T09:20:05;4.50;42.90
9118;DHT22;4594;50.994;7.126;2022-12-18T09:22:31;4.50;42.60
9118;DHT22;4594;50.994;7.126;2022-12-18T09:24:56;4.50;42.60
9118;DHT22;4594;50.994;7.126;2022-12-18T09:27:22;4.50;42.50
9118;DHT22;4594;50.994;7.126;2022-12-18T09:29:47;4.50;42.50
9118;DHT22;4594;50.994;7.126;2022-12-18T09:32:13;4.40;42.20
9118;DHT22;4594;50.994;7.126;2022-12-18T09:34:39;4.40;42.20
9118;DHT22;4594;50.994;7.126;2022-12-18T09:37:05;4.40;41.90
9118;DHT22;4594;50.994;7.126;2022-12-18T09:39:30;4.40;42.20
9118;DHT22;4594;50.994;7.126;2022-12-18T09:41:57;4.40;42.40
9118;DHT22;4594;50.994;7.126;2022-12-18T09:44:34;4.40;42.50
9118;DHT22;4594;50.994;7.126;2022-12-18T09:47:23;4.40;41.70
9118;DHT22;4594;50.994;7.126;2022-12-18T09:50:24;4.50;41.30
9118;DHT22;4594;50.994;7.126;2022-12-18T09:52:58;4.50;41.00
9118;DHT22;4594;50.994;7.126;2022-12-18T09:55:33;4.50;42.60
9118;DHT22;4594;50.994;7.126;2022-12-18T10:01:31;4.60;40.80
9118;DHT22;4594;50.994;7.126;2022-12-18T10:03:58;4.60;40.70
9118;DHT22;4594;50.994;7.126;2022-12-18T10:06:40;4.60;42.40
9118;DHT22;4594;50.994;7.126;2022-12-18T10:09:44;4.60;41.20
9118;DHT22;4594;50.994;7.126;2022-12-18T10:15:24;4.50;42.10
9118;DHT22;4594;50.994;7.126;2022-12-18T10:18:22;4.50;42.00
9118;DHT22;4594;50.994;7.126;2022-12-18T10:21:17;4.50;41.70
9118;DHT22;4594;50.994;7.126;2022-12-18T10:24:02;4.50;42.00
9118;DHT22;4594;50.994;7.126;2022-12-18T10:26:41;4.50;40.50
9118;DHT22;4594;50.994;7.126;2022-12-18T10:29:12;4.50;41.80
9118;DHT22;4594;50.994;7.126;2022-12-18T10:31:40;4.50;41.50
9118;DHT22;4594;50.994;7.126;2022-12-18T10:34:11;4.50;42.30
9118;DHT22;4594;50.994;7.126;2022-12-18T10:36:38;4.50;41.70
9118;DHT22;4594;50.994;7.126;2022-12-18T10:39:17;4.50;42.20
9118;DHT22;4594;50.994;7.126;2022-12-18T10:41:47;4.60;40.90
9118;DHT22;4594;50.994;7.126;2022-12-18T10:44:21;4.60;42.20
9118;DHT22;4594;50.994;7.126;2022-12-18T10:46:50;4.60;40.70
9118;DHT22;4594;50.994;7.126;2022-12-18T10:49:30;4.60;41.50
9118;DHT22;4594;50.994;7.126;2022-12-18T10:52:20;4.60;41.50
9118;DHT22;4594;50.994;7.126;2022-12-18T10:54:57;4.60;40.20
9118;DHT22;4594;50.994;7.126;2022-12-18T10:57:36;4.60;40.80
9118;DHT22;4594;50.994;7.126;2022-12-18T11:02:50;4.60;39.60
9118;DHT22;4594;50.994;7.126;2022-12-18T11:05:30;4.60;41.30
9118;DHT22;4594;50.994;7.126;2022-12-18T11:07:59;4.50;39.90
9118;DHT22;4594;50.994;7.126;2022-12-18T11:10:30;4.50;41.00
9118;DHT22;4594;50.994;7.126;2022-12-18T11:13:19;4.50;41.00
9118;DHT22;4594;50.994;7.126;2022-12-18T11:15:47;4.50;39.70
9118;DHT22;4594;50.994;7.126;2022-12-18T11:21:04;4.40;40.70
9118;DHT22;4594;50.994;7.126;2022-12-18T11:23:33;4.40;40.80
9118;DHT22;4594;50.994;7.126;2022-12-18T11:26:02;4.30;41.10
9118;DHT22;4594;50.994;7.126;2022-12-18T11:29:07;4.30;40.80
9118;DHT22;4594;50.994;7.126;2022-12-18T11:31:36;4.30;39.70
9118;DHT22;4594;50.994;7.126;2022-12-18T11:34:16;4.20;41.40
9118;DHT22;4594;50.994;7.126;2022-12-18T11:36:56;4.20;40.40
9118;DHT22;4594;50.994;7.126;2022-12-18T11:39:42;4.20;41.00
9118;DHT22;4594;50.994;7.126;2022-12-18T11:42:30;4.20;39.70
9118;DHT22;4594;50.994;7.126;2022-12-18T11:48:06;4.20;40.30
9118;DHT22;4594;50.994;7.126;2022-12-18T11:50:58;4.20;40.30
9118;DHT22;4594;50.994;7.126;2022-12-18T11:53:27;4.20;40.80
9118;DHT22;4594;50.994;7.126;2022-12-18T12:01:55;4.20;39.90
9118;DHT22;4594;50.994;7.126;2022-12-18T12:13:59;4.10;40.70
9118;DHT22;4594;50.994;7.126;2022-12-18T12:17:36;4.10;40.70
9118;DHT22;4594;50.994;7.126;2022-12-18T12:22:51;4.00;41.60
9118;DHT22;4594;50.994;7.126;2022-12-18T12:30:54;4.00;40.10
9118;DHT22;4594;50.994;7.126;2022-12-18T12:33:30;4.00;39.80
9118;DHT22;4594;50.994;7.126;2022-12-18T12:39:06;3.80;40.90
9118;DHT22;4594;50.994;7.126;2022-12-18T12:41:37;3.80;39.90
9118;DHT22;4594;50.994;7.126;2022-12-18T12:44:27;3.70;40.70
9118;DHT22;4594;50.994;7.126;2022-12-18T12:46:59;3.70;40.30
9118;DHT22;4594;50.994;7.126;2022-12-18T12:49:31;3.60;39.80
9118;DHT22;4594;50.994;7.126;2022-12-18T12:52:12;3.60;39.90
9118;DHT22;4594;50.994;7.126;2022-12-18T12:54:43;3.50;39.50
9118;DHT22;4594;50.994;7.126;2022-12-18T12:57:15;3.50;40.70
9118;DHT22;4594;50.994;7.126;2022-12-18T13:08:05;3.30;39.20
9118;DHT22;4594;50.994;7.126;2022-12-18T13:10:38;3.20;39.90
9118;DHT22;4594;50.994;7.126;2022-12-18T13:13:09;3.20;40.70
9118;DHT22;4594;50.994;7.126;2022-12-18T13:15:41;3.10;40.30
9118;DHT22;4594;50.994;7.126;2022-12-18T13:21:01;3.10;40.70
9118;DHT22;4594;50.994;7.126;2022-12-18T13:23:33;3.00;39.40
9118;DHT22;4594;50.994;7.126;2022-12-18T13:31:00;3.00;40.90
9118;DHT22;4594;50.994;7.126;2022-12-18T13:33:46;3.00;40.90
9118;DHT22;4594;50.994;7.126;2022-12-18T13:36:32;3.00;40.10
9118;DHT22;4594;50.994;7.126;2022-12-18T13:41:43;3.00;39.30
9118;DHT22;4594;50.994;7.126;2022-12-18T13:44:40;3.00;40.20
9118;DHT22;4594;50.994;7.126;2022-12-18T13:47:32;3.00;39.30
9118;DHT22;4594;50.994;7.126;2022-12-18T13:50:02;2.90;39.40
9118;DHT22;4594;50.994;7.126;2022-12-18T13:52:37;2.90;40.80
9118;DHT22;4594;50.994;7.126;2022-12-18T13:55:10;2.90;40.70
9118;DHT22;4594;50.994;7.126;2022-12-18T13:57:41;2.90;40.50
9118;DHT22;4594;50.994;7.126;2022-12-18T14:02:48;2.90;39.80
9118;DHT22;4594;50.994;7.126;2022-12-18T14:05:32;2.80;40.80
9118;DHT22;4594;50.994;7.126;2022-12-18T14:08:05;2.80;40.00
9118;DHT22;4594;50.994;7.126;2022-12-18T14:10:35;2.80;40.10
9118;DHT22;4594;50.994;7.126;2022-12-18T14:13:08;2.80;40.70
9118;DHT22;4594;50.994;7.126;2022-12-18T14:15:40;2.70;40.50
9118;DHT22;4594;50.994;7.126;2022-12-18T14:18:21;2.80;40.60
9118;DHT22;4594;50.994;7.126;2022-12-18T14:21:02;2.80;40.50
9118;DHT22;4594;50.994;7.126;2022-12-18T14:26:26;2.70;41.10
9118;DHT22;4594;50.994;7.126;2022-12-18T14:28:57;2.70;39.60
9118;DHT22;4594;50.994;7.126;2022-12-18T14:31:28;2.70;40.90
9118;DHT22;4594;50.994;7.126;2022-12-18T14:33:56;2.70;40.80
9118;DHT22;4594;50.994;7.126;2022-12-18T14:36:26;2.60;40.60
9118;DHT22;4594;50.994;7.126;2022-12-18T14:38:56;2.60;40.80
9118;DHT22;4594;50.994;7.126;2022-12-18T14:41:23;2.60;41.10
9118;DHT22;4594;50.994;7.126;2022-12-18T14:43:52;2.60;41.10
9118;DHT22;4594;50.994;7.126;2022-12-18T14:46:35;2.60;40.90
9118;DHT22;4594;50.994;7.126;2022-12-18T14:49:04;2.60;40.30
9118;DHT22;4594;50.994;7.126;2022-12-18T14:51:54;2.50;40.80
9118;DHT22;4594;50.994;7.126;2022-12-18T14:54:23;2.50;40.20
9118;DHT22;4594;50.994;7.126;2022-12-18T14:57:04;2.50;41.00
9118;DHT22;4594;50.994;7.126;2022-12-18T14:59:30;2.50;39.90
9118;DHT22;4594;50.994;7.126;2022-12-18T15:04:31;2.40;40.60
9118;DHT22;4594;50.994;7.126;2022-12-18T15:07:20;2.40;40.20
9118;DHT22;4594;50.994;7.126;2022-12-18T15:10:22;2.40;39.70
9118;DHT22;4594;50.994;7.126;2022-12-18T15:18:20;2.30;39.90
9118;DHT22;4594;50.994;7.126;2022-12-18T15:20:58;2.30;40.70
9118;DHT22;4594;50.994;7.126;2022-12-18T15:23:45;2.30;39.90
9118;DHT22;4594;50.994;7.126;2022-12-18T15:26:15;2.30;40.20
9118;DHT22;4594;50.994;7.126;2022-12-18T15:28:55;2.30;40.90
9118;DHT22;4594;50.994;7.126;2022-12-18T15:31:23;2.30;40.80
9118;DHT22;4594;50.994;7.126;2022-12-18T15:34:18;2.20;40.60
9118;DHT22;4594;50.994;7.126;2022-12-18T15:36:46;2.20;39.80
9118;DHT22;4594;50.994;7.126;2022-12-18T15:39:12;2.20;40.80
9118;DHT22;4594;50.994;7.126;2022-12-18T15:41:39;2.10;40.60
9118;DHT22;4594;50.994;7.126;2022-12-18T15:44:22;2.20;41.00
9118;DHT22;4594;50.994;7.126;2022-12-18T15:46:49;2.20;40.00
9118;DHT22;4594;50.994;7.126;2022-12-18T15:49:15;2.10;40.70
9118;DHT22;4594;50.994;7.126;2022-12-18T15:51:41;2.10;40.90
9118;DHT22;4594;50.994;7.126;2022-12-18T15:54:11;2.10;40.60
9118;DHT22;4594;50.994;7.126;2022-12-18T15:56:39;2.10;40.30
9118;DHT22;4594;50.994;7.126;2022-12-18T15:59:24;2.10;40.80
9118;DHT22;4594;50.994;7.126;2022-12-18T16:01:51;2.00;40.90
9118;DHT22;4594;50.994;7.126;2022-12-18T16:04:22;2.00;40.80
9118;DHT22;4594;50.994;7.126;2022-12-18T16:06:49;2.00;40.80
9118;DHT22;4594;50.994;7.126;2022-12-18T16:09:17;2.00;40.90
9118;DHT22;4594;50.994;7.126;2022-12-18T16:11:43;2.00;41.00
9118;DHT22;4594;50.994;7.126;2022-12-18T16:14:30;2.00;41.10
9118;DHT22;4594;50.994;7.126;2022-12-18T16:16:59;2.00;40.60
9118;DHT22;4594;50.994;7.126;2022-12-18T16:19:27;2.00;40.80
9118;DHT22;4594;50.994;7.126;2022-12-18T16:21:56;2.00;41.10
9118;DHT22;4594;50.994;7.126;2022-12-18T16:24:28;2.00;41.20
9118;DHT22;4594;50.994;7.126;2022-12-18T16:26:57;2.00;40.80
9118;DHT22;4594;50.994;7.126;2022-12-18T16:29:25;2.00;40.70
9118;DHT22;4594;50.994;7.126;2022-12-18T16:31:53;1.90;40.80
9118;DHT22;4594;50.994;7.126;2022-12-18T16:34:21;1.90;41.00
9118;DHT22;4594;50.994;7.126;2022-12-18T16:37:01;1.90;41.20
9118;DHT22;4594;50.994;7.126;2022-12-18T16:39:29;1.90;40.50
9118;DHT22;4594;50.994;7.126;2022-12-18T16:41:56;1.90;41.10
9118;DHT22;4594;50.994;7.126;2022-12-18T16:44:22;1.90;41.20
9118;DHT22;4594;50.994;7.126;2022-12-18T16:46:48;1.90;41.10
9118;DHT22;4594;50.994;7.126;2022-12-18T16:49:15;1.90;41.20
9118;DHT22;4594;50.994;7.126;2022-12-18T16:51:43;1.90;41.60
9118;DHT22;4594;50.994;7.126;2022-12-18T16:54:09;1.90;41.40
9118;DHT22;4594;50.994;7.126;2022-12-18T16:56:35;1.90;41.40
9118;DHT22;4594;50.994;7.126;2022-12-18T16:59:02;1.90;41.50
9118;DHT22;4594;50.994;7.126;2022-12-18T17:01:30;1.90;41.50
9118;DHT22;4594;50.994;7.126;2022-12-18T17:04:02;1.90;41.60
9118;DHT22;4594;50.994;7.126;2022-12-18T17:06:32;1.90;41.40
9118;DHT22;4594;50.994;7.126;2022-12-18T17:09:07;1.90;41.50
9118;DHT22;4594;50.994;7.126;2022-12-18T17:11:35;1.90;41.60
9118;DHT22;4594;50.994;7.126;2022-12-18T17:14:13;1.90;41.50
9118;DHT22;4594;50.994;7.126;2022-12-18T17:16:41;1.90;41.10
9118;DHT22;4594;50.994;7.126;2022-12-18T17:19:06;1.90;41.80
9118;DHT22;4594;50.994;7.126;2022-12-18T17:21:32;1.90;42.10
9118;DHT22;4594;50.994;7.126;2022-12-18T17:23:59;1.90;42.10
9118;DHT22;4594;50.994;7.126;2022-12-18T17:26:26;1.90;42.20
9118;DHT22;4594;50.994;7.126;2022-12-18T17:28:55;2.00;42.20
9118;DHT22;4594;50.994;7.126;2022-12-18T17:31:23;2.00;41.70
9118;DHT22;4594;50.994;7.126;2022-12-18T17:33:50;2.00;42.00
9118;DHT22;4594;50.994;7.126;2022-12-18T17:36:17;1.90;41.90
9118;DHT22;4594;50.994;7.126;2022-12-18T17:38:52;1.90;41.90
9118;DHT22;4594;50.994;7.126;2022-12-18T17:41:19;2.00;40.90
9118;DHT22;4594;50.994;7.126;2022-12-18T17:43:52;1.90;41.50
9118;DHT22;4594;50.994;7.126;2022-12-18T17:46:19;1.90;41.00
9118;DHT22;4594;50.994;7.126;2022-12-18T17:48:46;1.90;41.90
9118;DHT22;4594;50.994;7.126;2022-12-18T17:51:13;1.90;42.00
9118;DHT22;4594;50.994;7.126;2022-12-18T17:53:39;1.90;42.10
9118;DHT22;4594;50.994;7.126;2022-12-18T17:56:06;1.90;42.10
9118;DHT22;4594;50.994;7.126;2022-12-18T17:58:35;1.90;42.00
9118;DHT22;4594;50.994;7.126;2022-12-18T18:01:03;1.90;42.00
9118;DHT22;4594;50.994;7.126;2022-12-18T18:03:30;1.90;42.20
9118;DHT22;4594;50.994;7.126;2022-12-18T18:06:01;1.80;42.20
9118;DHT22;4594;50.994;7.126;2022-12-18T18:08:27;1.80;41.70
9118;DHT22;4594;50.994;7.126;2022-12-18T18:10:54;1.80;42.20
9118;DHT22;4594;50.994;7.126;2022-12-18T18:13:40;1.80;42.30
9118;DHT22;4594;50.994;7.126;2022-12-18T18:16:25;1.80;42.30
9118;DHT22;4594;50.994;7.126;2022-12-18T18:18:56;1.80;42.30
9118;DHT22;4594;50.994;7.126;2022-12-18T18:21:23;1.80;42.20
9118;DHT22;4594;50.994;7.126;2022-12-18T18:23:48;1.70;42.30